Thunder radar more information blitzortung!


Radar de pluja more information rain snow radar


Visita la nostra xarxa de llocs de meteo:

Template documentation
and downloads

And another site



No particular awareness of the weather is required.    There are no Weather-warnings

Pagina Historial Weather Underground text

Diari Resum Marc 16, 2016 Unitats:  Mètric    Imperial   Tant
« Previous Dia
SegĂźent Dia »
Diari Setmana Mensual Anual Personalitzada
  Maxima: Minima: Media:
Temperatura: -17.8 °C -15.1 °C -13.1 °C
Punt de rosada: -17.8 °C -17.1 °C -15.9 °C
Humitat: Humidity % 55 % 71 %
Wind Speed: 0 km/h 0 km/h 11.3 km/h
RĂ fegues de vent: 0 km/h - -
Vent:- - East
Pression baro: 0 hPa 34293.4 hPa -
Precipitacions: 180.34 mm    
Historical Graphs
 
 
Dades de taula per Marc 16, 2016
Temps Temperatura Punt de rosada Pression baro Vent Wind Speed RĂ fegues de vent Humitat Rainfall Rate (Hourly)
-17.8 °C -17.8 °C 0 hPa Calm     Humidity % 0 mm
00:05 -14.7 °C -16.8 °C 34327.3 hPa NE 5.1 km/h 7.7 km/h 76 % 0 mm
00:15 -14.7 °C -16.8 °C 34327.3 hPa NNE 2.6 km/h 5.1 km/h 76 % 0 mm
00:25 -14.7 °C -16.9 °C 34327.3 hPa NNE 5.1 km/h 7.7 km/h 75 % 0 mm
00:35 -14.7 °C -16.9 °C 34327.3 hPa NE 2.6 km/h 7.7 km/h 75 % 0 mm
00:45 -14.7 °C -16.9 °C 34327.3 hPa NE 2.6 km/h 5.1 km/h 75 % 0 mm
00:55 -14.7 °C -17 °C 34327.3 hPa North 2.6 km/h 5.1 km/h 75 % 0 mm
01:05 -14.8 °C -17.1 °C 34327.3 hPa West 2.6 km/h 2.6 km/h 75 % 0 mm
01:15 -14.9 °C -17.1 °C 34327.3 hPa Calm   2.6 km/h 76 % 0 mm
01:25 -14.9 °C -17.1 °C 34327.3 hPa WSW 2.6 km/h 2.6 km/h 76 % 0 mm
01:35 -14.7 °C -16.9 °C 34327.3 hPa NNW 2.6 km/h 7.7 km/h 76 % 0 mm
01:45 -14.6 °C -16.7 °C 34327.3 hPa NE 2.6 km/h 7.7 km/h 76 % 0 mm
01:55 -14.4 °C -16.6 °C 34327.3 hPa NE 2.6 km/h 7.7 km/h 76 % 0 mm
02:05 -14.3 °C -16.5 °C 34327.3 hPa NNE 2.6 km/h 5.1 km/h 76 % 0 mm
02:15 -14.3 °C -16.6 °C 34327.3 hPa NE 7.7 km/h 7.7 km/h 75 % 0 mm
02:25 -14.2 °C -16.5 °C 34327.3 hPa NE 5.1 km/h 5.1 km/h 75 % 0 mm
02:35 -14.2 °C -16.4 °C 34293.4 hPa NE 5.1 km/h 7.7 km/h 75 % 0 mm
02:45 -14.2 °C -16.4 °C 34327.3 hPa NNE 5.1 km/h 7.7 km/h 75 % 0 mm
02:55 -14.1 °C -16.5 °C 34327.3 hPa NNE 7.7 km/h 12.9 km/h 74 % 0 mm
03:05 -14.1 °C -16.4 °C 34327.3 hPa NE 5.1 km/h 10.3 km/h 74 % 0 mm
03:15 -14 °C -16.5 °C 34327.3 hPa North 7.7 km/h 12.9 km/h 73 % 0 mm
03:25 -13.9 °C -16.4 °C 34327.3 hPa NNE 5.1 km/h 10.3 km/h 73 % 0 mm
03:35 -13.8 °C -16.3 °C 34327.3 hPa NE 5.1 km/h 7.7 km/h 73 % 0 mm
03:55 -13.6 °C -16.2 °C 34327.3 hPa NNE 5.1 km/h 5.1 km/h 72 % 0 mm
04:05 -13.4 °C -16.1 °C 34327.3 hPa NE 2.6 km/h 7.7 km/h 72 % 0 mm
04:15 -13.3 °C -16.1 °C 34327.3 hPa NNE 7.7 km/h 12.9 km/h 71 % 0 mm
04:25 -13.2 °C -15.9 °C 34327.3 hPa NNE 7.7 km/h 10.3 km/h 71 % 0 mm
04:35 -13.1 °C -15.9 °C 34327.3 hPa NE 2.6 km/h 10.3 km/h 71 % 0 mm
10:44 -12.8 °C -15.8 °C 34327.3 hPa NE 6 km/h 6 km/h 69 % 0 mm
10:49 -12.7 °C -15.7 °C 34327.3 hPa ENE 9 km/h 9 km/h 69 % 0 mm
10:54 -12.7 °C -15.8 °C 34327.3 hPa ENE 11.9 km/h 11.9 km/h 68 % 0 mm
10:59 -12.6 °C -15.7 °C 34327.3 hPa ENE 6 km/h 6 km/h 68 % 0 mm
11:04 -12.6 °C -15.7 °C 34327.3 hPa NE 9 km/h 9 km/h 68 % 0 mm
11:09 -12.4 °C -15.6 °C 34327.3 hPa ESE 8 km/h 8 km/h 68 % 0 mm
11:14 -12.3 °C -15.5 °C 34327.3 hPa NNE 6 km/h   67 % 0 mm
11:19 -12.2 °C -15.4 °C 34327.3 hPa ENE 11.9 km/h 11.9 km/h 67 % 0 mm
11:24 -12.1 °C -15.4 °C 34327.3 hPa NE 11.9 km/h 11.9 km/h 67 % 0 mm
11:29 -11.9 °C -15.3 °C 34327.3 hPa ENE 9 km/h 9 km/h 66 % 0 mm
11:34 -11.9 °C -15.3 °C 34327.3 hPa NNE 6 km/h 6 km/h 66 % 0 mm
11:39 -11.6 °C -14.9 °C 34327.3 hPa WNW 6 km/h 6 km/h 66 % 0 mm
11:44 -11.6 °C -15.2 °C 34327.3 hPa North 11.9 km/h 11.9 km/h 64 % 0 mm
11:49 -11.4 °C -15.1 °C 34327.3 hPa WSW 15 km/h 15 km/h 64 % 0 mm
11:54 -11.4 °C -15.1 °C 34293.4 hPa NNE 6 km/h 6 km/h 64 % 0 mm
11:59 -11.2 °C -15 °C 34293.4 hPa ENE 9 km/h 9 km/h 63 % 0 mm
12:04 -11.1 °C -14.8 °C 34293.4 hPa NNW 6 km/h 6 km/h 63 % 0 mm
12:09 -10.7 °C -14.5 °C 34327.3 hPa SSE 6 km/h 6 km/h 63 % 0 mm
12:14 -10.5 °C -14.3 °C 34327.3 hPa South 6 km/h 6 km/h 63 % 0 mm
12:19 -10.8 °C -15.1 °C 34327.3 hPa ESE 9 km/h 9 km/h 60 % 0 mm
12:24 -10.7 °C -14.8 °C 34327.3 hPa WSW 9 km/h 9 km/h 61 % 0 mm
12:29 -10.8 °C -14.9 °C 34327.3 hPa SW 6 km/h 6 km/h 60 % 0 mm
12:34 -10.8 °C -14.8 °C 34327.3 hPa NW 9 km/h 9 km/h 61 % 0 mm
12:39 -10.8 °C -14.9 °C 34327.3 hPa WNW 6 km/h   60 % 0 mm
12:44 -10.7 °C -15.1 °C 34327.3 hPa NNW 6 km/h 6 km/h 59 % 0 mm
12:49 -10.8 °C -14.9 °C 34327.3 hPa SSE 9 km/h 9 km/h 60 % 0 mm
12:54 -10.7 °C -15 °C 34327.3 hPa NW 6.3 km/h 6.3 km/h 59 % 0 mm
12:59 -10.6 °C -14.9 °C 34327.3 hPa ENE 6 km/h   59 % 0 mm
13:09 -10.5 °C -15 °C 34293.4 hPa South 6 km/h 6 km/h 58 % 0 mm
13:14 -10.4 °C -14.9 °C 34293.4 hPa South 9 km/h 9 km/h 58 % 0 mm
13:19 -10.3 °C -14.8 °C 34293.4 hPa SE 6 km/h 6 km/h 58 % 0 mm
13:24 -10.2 °C -14.7 °C 34327.3 hPa SW 11.9 km/h 11.9 km/h 58 % 0 mm
13:29 -10.3 °C -14.9 °C 34327.3 hPa NNE 6.3 km/h 6.3 km/h 57 % 0 mm
13:34 -10.4 °C -14.9 °C 34327.3 hPa SSW 6 km/h 6 km/h 58 % 0 mm
13:44 -10.3 °C -15.1 °C 34327.3 hPa ENE 9 km/h 9 km/h 56 % 0 mm
13:49 -10.3 °C -15.1 °C 34327.3 hPa ENE 3.7 km/h 3.7 km/h 56 % 0 mm
13:54 -10.3 °C -14.9 °C 34327.3 hPa ENE 6 km/h 6 km/h 57 % 0 mm
13:59 -10.3 °C -15.1 °C 34327.3 hPa North 6 km/h 6 km/h 56 % 0 mm
14:04 -10.1 °C -14.8 °C 34327.3 hPa SE 5.6 km/h   57 % 0 mm
14:09 -10.1 °C -14.8 °C 34293.4 hPa ENE 6 km/h 6 km/h 56 % 0 mm
14:14 -9.9 °C -14.6 °C 34293.4 hPa NNE 6 km/h   57 % 0 mm
14:19 -9.9 °C -14.8 °C 34293.4 hPa ENE 9 km/h 9 km/h 56 % 0 mm
14:24 -10.1 °C -15 °C 34327.3 hPa NE 17.9 km/h 17.9 km/h 55 % 0 mm
14:29 -10 °C -14.9 °C 34327.3 hPa ENE 14 km/h 14 km/h 55 % 0 mm
14:34 -10.2 °C -15 °C 34327.3 hPa NNE 15 km/h 15 km/h 56 % 0 mm
14:39 -10.4 °C -15.3 °C 34327.3 hPa SE 23.8 km/h 23.8 km/h 55 % 0 mm
14:44 -10.5 °C -15.4 °C 34327.3 hPa East 20.9 km/h 20.9 km/h 55 % 0 mm
14:49 -10.6 °C -15.5 °C 34327.3 hPa ESE 23.8 km/h 23.8 km/h 55 % 0 mm
14:54 -10.6 °C -15.5 °C 34327.3 hPa SE 20.9 km/h 20.9 km/h 55 % 0 mm
14:59 -10.6 °C -15.3 °C 34327.3 hPa ENE 17.9 km/h 17.9 km/h 56 % 0 mm
15:04 -10.7 °C -15.4 °C 34327.3 hPa ESE 17.9 km/h 17.9 km/h 56 % 0 mm
15:09 -10.7 °C -15.4 °C 34327.3 hPa East 20.9 km/h 20.9 km/h 56 % 0 mm
15:14 -10.7 °C -15.3 °C 34327.3 hPa NE 15 km/h 15 km/h 57 % 0 mm
15:19 -10.8 °C -15.4 °C 34327.3 hPa South 15 km/h 15 km/h 57 % 0 mm
15:24 -10.8 °C -15.4 °C 34327.3 hPa NNE 15 km/h 15 km/h 57 % 0 mm
15:29 -10.9 °C -15.5 °C 34327.3 hPa East 26.9 km/h 26.9 km/h 57 % 0 mm
15:34 -10.9 °C -15.5 °C 34327.3 hPa ENE 11.9 km/h 11.9 km/h 57 % 0 mm
15:39 -10.8 °C -15.4 °C 34327.3 hPa ENE 15 km/h 15 km/h 57 % 0 mm
15:44 -10.9 °C -15.5 °C 34327.3 hPa ENE 23.8 km/h 23.8 km/h 57 % 0 mm
15:49 -10.9 °C -15.5 °C 34327.3 hPa ENE 20.9 km/h 20.9 km/h 57 % 0 mm
15:54 -11 °C -15.4 °C 34361.1 hPa East 26.9 km/h 26.9 km/h 58 % 0 mm
15:59 -11 °C -15.4 °C 34361.1 hPa ESE 20.9 km/h 20.9 km/h 58 % 0 mm
16:04 -11 °C -15.3 °C 34361.1 hPa ENE 20.9 km/h 20.9 km/h 59 % 0 mm
16:09 -11 °C -15.3 °C 34327.3 hPa ENE 26.9 km/h 26.9 km/h 59 % 0 mm
16:14 -11 °C -15.3 °C 34327.3 hPa ESE 20.9 km/h 20.9 km/h 59 % 0 mm
16:19 -11.1 °C -15.4 °C 34327.3 hPa ESE 15 km/h 15 km/h 59 % 0 mm
16:24 -11.1 °C -15.3 °C 34327.3 hPa ESE 20.3 km/h 20.3 km/h 60 % 0 mm
16:29 -11.2 °C -15.3 °C 34327.3 hPa ESE 16.1 km/h 16.1 km/h 61 % 0 mm
16:34 -11.3 °C -15.3 °C 34327.3 hPa ENE 17.9 km/h 17.9 km/h 61 % 0 mm
16:39 -11.3 °C -15.4 °C 34361.1 hPa East 15 km/h 15 km/h 61 % 0 mm
16:44 -11.3 °C -15.2 °C 34361.1 hPa ESE 26.4 km/h 26.4 km/h 62 % 0 mm
16:49 -11.4 °C -15.3 °C 34361.1 hPa ENE 23.8 km/h 23.8 km/h 62 % 0 mm
16:54 -11.4 °C -15.3 °C 34361.1 hPa ENE 19.6 km/h 19.6 km/h 62 % 0 mm
16:59 -11.4 °C -15.3 °C 34361.1 hPa ENE 16.6 km/h 16.6 km/h 62 % 0 mm
17:04 -11.5 °C -15.3 °C 34361.1 hPa ESE 20.9 km/h 20.9 km/h 63 % 0 mm
17:14 -11.7 °C -15.3 °C 34361.1 hPa ESE 15.6 km/h 15.6 km/h 64 % 0 mm
17:19 -11.7 °C -15.4 °C 34361.1 hPa SE 11.9 km/h 11.9 km/h 64 % 0 mm
17:24 -11.8 °C -15.3 °C 34361.1 hPa SW 12.2 km/h 12.2 km/h 65 % 0 mm
17:29 -11.9 °C -15.3 °C 34361.1 hPa ESE 15 km/h 15 km/h 66 % 0 mm
17:34 -12 °C -15.2 °C 34361.1 hPa SSE 15 km/h 15 km/h 67 % 0 mm
17:39 -12.1 °C -15.2 °C 34361.1 hPa NE 15 km/h 15 km/h 68 % 0 mm
17:44 -12.2 °C -15.4 °C 34361.1 hPa East 15 km/h 15 km/h 68 % 0 mm
17:49 -12.3 °C -15.3 °C 34361.1 hPa ENE 11.9 km/h 11.9 km/h 69 % 0 mm
17:54 -12.4 °C -15.4 °C 34395 hPa ESE 17.9 km/h 17.9 km/h 69 % 0 mm
17:55 -14.8 °C -16.7 °C 34533.8 hPa NE 7.7 km/h 10.3 km/h 79 % 0 mm
17:59 -12.4 °C -15.3 °C 34395 hPa ESE 6 km/h 7.6 km/h 70 % 0 mm
18:04 -12.5 °C -15.4 °C 34395 hPa NE 11.9 km/h 11.9 km/h 70 % 0 mm
18:05 -14.9 °C -16.8 °C 34533.8 hPa NE 7.7 km/h 12.9 km/h 79 % 0 mm
18:09 -12.6 °C -15.4 °C 34395 hPa NE 15 km/h 15 km/h 70 % 0 mm
18:14 -12.7 °C -15.4 °C 34395 hPa NE 11.9 km/h 11.9 km/h 71 % 50.8 mm
18:15 -14.9 °C -16.8 °C 34496.6 hPa NE 5.1 km/h 10.3 km/h 79 % 0 mm
18:19 -12.7 °C -15.4 °C 34395 hPa ESE 9 km/h 9 km/h 72 % 50.8 mm
18:24 -12.8 °C -15.3 °C 34395 hPa East 11.9 km/h 11.9 km/h 73 % 50.8 mm
18:25 -14.9 °C -16.7 °C 34496.6 hPa ENE 5.1 km/h 12.9 km/h 80 % 0 mm
18:29 -12.8 °C -15.3 °C 34395 hPa SE 11.1 km/h 11.1 km/h 74 % 50.8 mm
18:34 -12.8 °C -15.3 °C 34395 hPa East 9 km/h 9 km/h 74 % 50.8 mm
18:35 -14.9 °C -16.6 °C 34533.8 hPa East 7.7 km/h 10.3 km/h 80 % 0 mm
18:39 -12.9 °C -15.2 °C 34395 hPa ENE 9 km/h 9 km/h 75 % 50.8 mm
18:44 -12.9 °C -15.3 °C 34395 hPa NE 9 km/h 9 km/h 75 % 50.8 mm
18:45 -14.9 °C -16.6 °C 34533.8 hPa ENE 5.1 km/h 7.7 km/h 80 % 0 mm
18:54 -13 °C -15.2 °C 34395 hPa NE 14.5 km/h 14.5 km/h 76 % 50.8 mm
18:55 -14.9 °C -16.6 °C 34533.8 hPa NE 7.7 km/h 7.7 km/h 80 % 0 mm
18:59 -13.1 °C -15.1 °C 34395 hPa ENE 15 km/h 15 km/h 78 % 50.8 mm
19:04 -13.1 °C -15.1 °C 34395 hPa East 17.9 km/h 17.9 km/h 78 % 50.8 mm
19:05 -14.9 °C -16.6 °C 34533.8 hPa NE 7.7 km/h 10.3 km/h 80 % 0 mm
19:09 -13.2 °C -15.1 °C 34395 hPa ENE 18.3 km/h 18.3 km/h 79 % 50.8 mm
19:14 -13.3 °C -15.3 °C 34395 hPa NNE 9 km/h 12.2 km/h 78 % 0 mm
19:15 -14.9 °C -16.6 °C 34533.8 hPa NE 5.1 km/h 7.7 km/h 80 % 0 mm
19:19 -13.3 °C -15.3 °C 34395 hPa NNE 9 km/h 12.2 km/h 78 % 0 mm
19:24 -13.4 °C -15.3 °C 34428.8 hPa NE 16.6 km/h 16.6 km/h 79 % 0 mm
19:25 -14.9 °C -16.6 °C 34533.8 hPa Calm   2.6 km/h 81 % 0 mm
19:29 -13.4 °C -15.3 °C 34428.8 hPa ENE 17.9 km/h 17.9 km/h 79 % 0 mm
19:34 -13.5 °C -15.4 °C 34428.8 hPa East 16.1 km/h 16.1 km/h 79 % 0 mm
19:35 -14.9 °C -16.6 °C 34533.8 hPa NNE 5.1 km/h 7.7 km/h 81 % 0 mm
19:39 -13.6 °C -15.4 °C 34428.8 hPa ENE 23.8 km/h 23.8 km/h 79 % 0 mm
19:44 -13.6 °C -15.5 °C 34428.8 hPa ENE 15 km/h 15 km/h 79 % 0 mm
19:45 -14.9 °C -16.6 °C 34533.8 hPa NNE 12.9 km/h 12.9 km/h 81 % 0 mm
19:49 -13.6 °C -15.5 °C 34428.8 hPa NE 20.3 km/h 20.3 km/h 79 % 0 mm
19:54 -13.7 °C -15.6 °C 34428.8 hPa East 15 km/h 15 km/h 79 % 0 mm
19:55 -14.9 °C -16.7 °C 34533.8 hPa NE 12.9 km/h 12.9 km/h 80 % 0 mm
19:59 -13.8 °C -15.7 °C 34428.8 hPa East 15 km/h 15 km/h 79 % 0 mm
20:04 -13.8 °C -15.7 °C 34428.8 hPa East 15 km/h 15 km/h 79 % 0 mm
20:05 -15 °C -16.8 °C 34533.8 hPa NNE 12.9 km/h 12.9 km/h 80 % 0 mm
20:09 -13.9 °C -15.8 °C 34462.7 hPa ENE 9.3 km/h 12.2 km/h 79 % 0 mm
20:14 -13.9 °C -15.8 °C 34462.7 hPa ENE 9.3 km/h 12.2 km/h 79 % 0 mm
20:15 -15 °C -16.8 °C 34533.8 hPa NNE 7.7 km/h 15.6 km/h 80 % 0 mm
20:19 -14 °C -15.8 °C 34462.7 hPa ESE 15.3 km/h 15.3 km/h 80 % 0 mm
20:24 -14.1 °C -15.8 °C 34462.7 hPa ENE 20.9 km/h 20.9 km/h 80 % 0 mm
20:25 -15 °C -16.8 °C 34533.8 hPa NNE 12.9 km/h 12.9 km/h 80 % 0 mm
20:29 -14.1 °C -15.8 °C 34462.7 hPa ESE 15 km/h 15 km/h 80 % 0 mm
20:34 -14.1 °C -15.9 °C 34462.7 hPa ESE 15 km/h 15 km/h 80 % 0 mm
20:35 -15 °C -16.8 °C 34533.8 hPa NNE 7.7 km/h 7.7 km/h 80 % 0 mm
20:39 -14.1 °C -15.9 °C 34496.6 hPa ESE 15 km/h 15 km/h 80 % 0 mm
20:44 -14.1 °C -15.9 °C 34496.6 hPa ENE 15 km/h 15 km/h 80 % 0 mm
20:45 -15.1 °C -16.8 °C 34533.8 hPa NNE 7.7 km/h 10.3 km/h 80 % 0 mm
20:49 -14.1 °C -15.9 °C 34496.6 hPa East 12.7 km/h 12.7 km/h 80 % 0 mm
20:54 -14.2 °C -15.9 °C 34462.7 hPa East 12.7 km/h 12.7 km/h 80 % 0 mm
20:55 -15.1 °C -16.8 °C 34533.8 hPa NE 7.7 km/h 15.6 km/h 80 % 0 mm
20:59 -14.2 °C -15.9 °C 34462.7 hPa East 12.7 km/h 12.7 km/h 80 % 0 mm
21:04 -14.2 °C -15.9 °C 34462.7 hPa East 12.7 km/h 12.7 km/h 80 % 0 mm
21:05 -15.1 °C -16.8 °C 34533.8 hPa NE 7.7 km/h 12.9 km/h 80 % 0 mm
21:09 -14.2 °C -15.9 °C 34496.6 hPa East 11.9 km/h 11.9 km/h 80 % 0 mm
21:14 -14.2 °C -15.9 °C 34496.6 hPa East 9 km/h 11.6 km/h 80 % 0 mm
21:15 -15.1 °C -16.8 °C 34533.8 hPa NNE 15.6 km/h 15.6 km/h 80 % 0 mm
21:19 -14.2 °C -16 °C 34496.6 hPa East 9 km/h 11.6 km/h 80 % 0 mm
21:24 -14.3 °C -16.1 °C 34496.6 hPa ESE 15 km/h 15 km/h 80 % 0 mm
21:25 -15.1 °C -16.8 °C 34533.8 hPa NNE 7.7 km/h 10.3 km/h 80 % 0 mm
21:29 -14.3 °C -16.1 °C 34496.6 hPa ESE 6 km/h 7.6 km/h 80 % 0 mm
21:34 -14.3 °C -16.1 °C 34496.6 hPa ENE 11.9 km/h 11.9 km/h 80 % 0 mm
21:35 -15.1 °C -16.9 °C 34533.8 hPa NNE 5.1 km/h 7.7 km/h 79 % 0 mm
21:39 -14.3 °C -16.1 °C 34496.6 hPa ENE 15.3 km/h 15.3 km/h 80 % 0 mm
21:44 -14.3 °C -16.1 °C 34496.6 hPa East 9 km/h 9 km/h 80 % 0 mm
21:45 -15 °C -16.8 °C 34496.6 hPa NE 5.1 km/h 15.6 km/h 79 % 0 mm
21:49 -14.3 °C -16 °C 34496.6 hPa NE 9.3 km/h 9.3 km/h 81 % 0 mm
21:55 -15.1 °C -16.9 °C 34496.6 hPa NE 2.6 km/h 10.3 km/h 79 % 0 mm
21:59 -14.4 °C -16.1 °C 34496.6 hPa ESE 22 km/h 22 km/h 81 % 0 mm
22:04 -14.4 °C -16.2 °C 34496.6 hPa ENE 20.9 km/h 20.9 km/h 80 % 0 mm
22:05 -15 °C -16.8 °C 34567.7 hPa NE 5.1 km/h 7.7 km/h 79 % 0 mm
22:09 -14.4 °C -16.2 °C 34496.6 hPa ENE 15 km/h 15 km/h 80 % 0 mm
22:14 -14.4 °C -16.2 °C 34496.6 hPa East 11.1 km/h 11.1 km/h 80 % 0 mm
22:15 -15 °C -16.8 °C 34533.8 hPa NE 5.1 km/h 10.3 km/h 79 % 0 mm
22:19 -14.4 °C -16.2 °C 34496.6 hPa NE 9.3 km/h 9.3 km/h 80 % 0 mm
22:24 -14.5 °C -16.3 °C 34496.6 hPa ENE 20.9 km/h 20.9 km/h 80 % 0 mm
22:25 -14.9 °C -16.8 °C 34533.8 hPa NE 5.1 km/h 7.7 km/h 79 % 0 mm
22:29 -14.6 °C -16.3 °C 34496.6 hPa ENE 15 km/h 15 km/h 80 % 0 mm
22:34 -14.6 °C -16.3 °C 34496.6 hPa East 15 km/h 15 km/h 80 % 0 mm
22:35 -14.9 °C -16.8 °C 34533.8 hPa NE 7.7 km/h 7.7 km/h 79 % 0 mm
22:39 -14.6 °C -16.3 °C 34496.6 hPa ENE 11.9 km/h 11.9 km/h 80 % 0 mm
22:44 -14.6 °C -16.4 °C 34496.6 hPa NE 15 km/h 15 km/h 80 % 0 mm
22:45 -14.9 °C -16.9 °C 34533.8 hPa NNE 5.1 km/h 10.3 km/h 78 % 0 mm
22:49 -14.6 °C -16.4 °C 34496.6 hPa ESE 15 km/h 15 km/h 80 % 0 mm
22:54 -14.6 °C -16.4 °C 34533.8 hPa ENE 15.6 km/h 15.6 km/h 80 % 0 mm
22:55 -14.9 °C -16.9 °C 34533.8 hPa NNE 5.1 km/h 10.3 km/h 78 % 0 mm
22:59 -14.6 °C -16.4 °C 34533.8 hPa ENE 9 km/h 11.1 km/h 80 % 0 mm
23:04 -14.6 °C -16.4 °C 34533.8 hPa NE 9 km/h 9 km/h 80 % 0 mm
23:05 -14.9 °C -16.8 °C 34533.8 hPa NE 5.1 km/h 7.7 km/h 78 % 0 mm
23:09 -14.6 °C -16.5 °C 34533.8 hPa NE 15.6 km/h 15.6 km/h 79 % 0 mm
23:14 -14.7 °C -16.6 °C 34533.8 hPa ENE 9.8 km/h 10.3 km/h 79 % 129.54 mm
23:15 -14.9 °C -16.8 °C 34533.8 hPa NE 7.7 km/h 7.7 km/h 78 % 0 mm
23:19 -14.7 °C -16.6 °C 34533.8 hPa East 14 km/h 14 km/h 79 % 129.54 mm
23:24 -14.7 °C -16.6 °C 34533.8 hPa ENE 15.6 km/h 16.6 km/h 79 % 129.54 mm
23:25 -14.9 °C -16.9 °C 34533.8 hPa NE 7.7 km/h 15.6 km/h 77 % 0 mm
23:29 -14.7 °C -16.6 °C 34533.8 hPa ESE 22 km/h 22 km/h 79 % 129.54 mm
23:34 -14.7 °C -16.6 °C 34533.8 hPa East 20.9 km/h 20.9 km/h 79 % 129.54 mm
23:35 -14.9 °C -16.9 °C 34496.6 hPa NE 7.7 km/h 10.3 km/h 77 % 0 mm
23:39 -14.8 °C -16.6 °C 34533.8 hPa ESE 15 km/h 15 km/h 79 % 129.54 mm
23:44 -14.8 °C -16.7 °C 34533.8 hPa ENE 17.9 km/h 17.9 km/h 79 % 129.54 mm
23:45 -14.9 °C -16.9 °C 34533.8 hPa NE 7.7 km/h 10.3 km/h 77 % 0 mm
23:49 -14.8 °C -16.7 °C 34533.8 hPa ENE 15.3 km/h 15.3 km/h 79 % 129.54 mm
23:55 -14.9 °C -17 °C 34533.8 hPa NE 12.9 km/h 20.8 km/h 77 % 0 mm
Meteo Sesrovires
Elogis d' Weather Underground - 2 mb

Guio original per  Jim McMurry - jmcmurry@mwt.net Adaptat per a la plantilla per  Wim van der Kuil - Leuven-Template.eu

Trobareu la nostra informacio del temps tambe a:

Weather Underground

AWEKAS